createdAt,value
2022-09-12T00:00:08.817Z,16.91
2022-09-12T00:00:43.947Z,16.72
2022-09-12T00:01:24.515Z,16.81
2022-09-12T00:01:57.024Z,16.96
2022-09-12T00:02:29.359Z,16.97
2022-09-12T00:03:01.740Z,16.94
2022-09-12T00:03:34.401Z,16.98
2022-09-12T00:04:07.030Z,16.99
2022-09-12T00:04:39.414Z,17.10
2022-09-12T00:05:11.783Z,17.08
2022-09-12T00:05:45.958Z,17.07
2022-09-12T00:06:26.830Z,17.14
2022-09-12T00:06:59.259Z,17.06
2022-09-12T00:07:31.596Z,17.11
2022-09-12T00:08:04.942Z,17.08
2022-09-12T00:08:37.856Z,17.15
2022-09-12T00:09:13.204Z,17.00
2022-09-12T00:09:45.619Z,17.02
2022-09-12T00:10:20.654Z,17.01
2022-09-12T00:10:52.826Z,16.98
2022-09-12T00:11:26.326Z,17.10
2022-09-12T00:11:58.775Z,17.08
2022-09-12T00:12:31.255Z,17.11
2022-09-12T00:13:03.787Z,17.04
2022-09-12T00:13:41.519Z,17.06
2022-09-12T00:14:16.976Z,17.09
2022-09-12T00:14:49.289Z,17.08
2022-09-12T00:15:21.737Z,17.09
2022-09-12T00:15:54.065Z,17.20
2022-09-12T00:16:29.847Z,17.15
2022-09-12T00:17:02.521Z,17.08
2022-09-12T00:17:36.282Z,17.00
2022-09-12T00:18:10.032Z,17.12
2022-09-12T00:18:42.471Z,17.06
2022-09-12T00:19:14.871Z,17.06
2022-09-12T00:19:47.207Z,17.09
2022-09-12T00:20:19.735Z,17.17
2022-09-12T00:20:52.121Z,17.13
2022-09-12T00:21:24.567Z,17.05
2022-09-12T00:21:56.895Z,17.12
2022-09-12T00:22:31.171Z,17.09
2022-09-12T00:23:03.512Z,17.13
2022-09-12T00:23:35.784Z,17.10
2022-09-12T00:24:11.665Z,16.63
2022-09-12T00:24:49.933Z,16.52
2022-09-12T00:25:22.417Z,16.47
2022-09-12T00:25:54.761Z,16.43
2022-09-12T00:26:27.319Z,16.36
2022-09-12T00:26:59.896Z,16.29
2022-09-12T00:27:32.237Z,16.23
2022-09-12T00:28:04.784Z,16.13
2022-09-12T00:28:39.164Z,15.96
2022-09-12T00:29:17.475Z,15.94
2022-09-12T00:29:49.875Z,15.95
2022-09-12T00:30:22.111Z,15.99
2022-09-12T00:30:54.397Z,15.83
2022-09-12T00:31:28.360Z,15.71
2022-09-12T00:32:01.115Z,15.78
2022-09-12T00:32:34.405Z,15.88
2022-09-12T00:33:06.767Z,15.92
2022-09-12T00:33:39.913Z,15.87
2022-09-12T00:34:12.735Z,15.89
2022-09-12T00:34:44.988Z,15.91
2022-09-12T00:35:18.643Z,15.90
2022-09-12T00:35:53.241Z,15.77
2022-09-12T00:36:26.889Z,15.80
2022-09-12T00:36:59.319Z,15.88
2022-09-12T00:37:31.677Z,15.89
2022-09-12T00:38:03.903Z,15.90
2022-09-12T00:38:38.849Z,15.95
2022-09-12T00:39:17.940Z,16.06
2022-09-12T00:39:50.313Z,15.95
2022-09-12T00:40:23.353Z,15.95
2022-09-12T00:40:55.797Z,16.07
2022-09-12T00:41:31.539Z,16.11
2022-09-12T00:42:04.273Z,16.00
2022-09-12T00:42:36.690Z,15.99
2022-09-12T00:43:17.313Z,16.03
2022-09-12T00:43:53.715Z,16.11
2022-09-12T00:44:25.863Z,15.99
2022-09-12T00:44:58.317Z,16.01
2022-09-12T00:45:31.329Z,15.96
2022-09-12T00:46:35.114Z,15.78
2022-09-12T00:47:16.498Z,15.79
2022-09-12T00:47:49.604Z,15.77
2022-09-12T00:48:32.327Z,15.87
2022-09-12T00:49:14.180Z,15.77
2022-09-12T00:50:12.574Z,15.76
2022-09-12T00:50:44.924Z,15.78
2022-09-12T00:51:19.361Z,15.79
2022-09-12T00:52:06.756Z,15.78
2022-09-12T00:52:48.363Z,15.66
2022-09-12T00:53:20.944Z,15.65
2022-09-12T00:53:55.463Z,15.76
2022-09-12T00:54:32.734Z,15.75
2022-09-12T00:55:12.998Z,15.68
2022-09-12T00:55:49.720Z,15.78
2022-09-12T00:56:24.005Z,15.81
2022-09-12T00:57:00.006Z,15.76
2022-09-12T00:57:48.633Z,15.80
2022-09-12T00:58:25.383Z,15.79
2022-09-12T00:59:05.526Z,15.78
2022-09-12T00:59:48.102Z,15.69
2022-09-12T01:00:23.705Z,15.65
2022-09-12T01:00:57.715Z,15.63
2022-09-12T01:01:32.601Z,15.58
2022-09-12T01:02:05.630Z,15.60
2022-09-12T01:02:38.243Z,15.71
2022-09-12T01:03:17.347Z,15.69
2022-09-12T01:03:49.784Z,15.73
2022-09-12T01:06:39.447Z,15.84
2022-09-12T01:07:12.822Z,15.79
2022-09-12T01:07:48.639Z,15.65
2022-09-12T01:08:21.435Z,15.64
2022-09-12T01:08:56.213Z,15.61
2022-09-12T01:09:30.584Z,15.54
2022-09-12T01:10:04.324Z,15.47
2022-09-12T01:10:38.761Z,15.53
2022-09-12T01:11:13.482Z,15.44
2022-09-12T01:11:56.385Z,15.38
2022-09-12T01:12:29.568Z,15.38
2022-09-12T01:13:05.225Z,15.34
2022-09-12T01:13:38.060Z,15.34
2022-09-12T01:14:10.506Z,15.31
2022-09-12T01:14:43.295Z,15.38
2022-09-12T01:15:15.645Z,15.44
2022-09-12T01:15:48.113Z,15.46
2022-09-12T01:16:20.614Z,15.47
2022-09-12T01:16:53.155Z,15.55
2022-09-12T01:17:32.406Z,15.60
2022-09-12T01:18:17.379Z,15.59
2022-09-12T01:19:18.358Z,15.67
2022-09-12T01:20:15.725Z,15.69
2022-09-12T01:21:10.352Z,15.65
2022-09-12T01:21:51.436Z,15.61
2022-09-12T01:22:45.355Z,15.59
2022-09-12T01:23:45.551Z,15.61
2022-09-12T01:24:33.844Z,15.56
2022-09-12T01:25:27.747Z,15.63
2022-09-12T01:26:34.114Z,15.55
2022-09-12T01:27:51.479Z,15.56
2022-09-12T01:28:48.610Z,15.35
2022-09-12T01:29:42.694Z,15.21
2022-09-12T01:30:22.905Z,15.13
2022-09-12T01:31:12.684Z,15.06
2022-09-12T01:31:56.685Z,15.15
2022-09-12T01:32:38.111Z,15.08
2022-09-12T01:33:25.098Z,15.17
2022-09-12T01:34:06.312Z,15.21
2022-09-12T01:35:07.358Z,15.36
2022-09-12T01:36:10.674Z,15.34
2022-09-12T01:36:51.067Z,15.22
2022-09-12T01:37:44.727Z,15.38
2022-09-12T01:38:38.443Z,15.43
2022-09-12T01:39:29.007Z,15.33
2022-09-12T01:40:23.400Z,15.39
2022-09-12T01:41:24.839Z,15.28
2022-09-12T01:41:59.967Z,15.25
2022-09-12T01:42:48.948Z,15.28
2022-09-12T01:43:26.854Z,15.16
2022-09-12T01:44:25.449Z,15.17
2022-09-12T01:45:11.718Z,15.23
2022-09-12T01:46:05.558Z,15.14
2022-09-12T01:46:47.506Z,15.07
2022-09-12T01:47:40.991Z,15.22
2022-09-12T01:48:27.160Z,15.21
2022-09-12T01:49:17.672Z,15.20
2022-09-12T01:49:59.042Z,15.18
2022-09-12T01:50:35.933Z,15.09
2022-09-12T01:51:12.728Z,15.04
2022-09-12T01:51:55.558Z,15.07
2022-09-12T01:52:36.356Z,15.03
2022-09-12T01:53:25.454Z,14.97
2022-09-12T01:54:06.959Z,14.98
2022-09-12T01:54:45.614Z,14.98
2022-09-12T01:55:26.567Z,15.03
2022-09-12T01:56:08.595Z,14.94
2022-09-12T01:56:43.891Z,14.88
2022-09-12T01:57:28.691Z,14.94
2022-09-12T01:58:04.998Z,14.87
2022-09-12T01:58:53.637Z,14.83
2022-09-12T01:59:41.177Z,14.85
2022-09-12T02:00:13.889Z,14.88
2022-09-12T02:01:00.168Z,14.86
2022-09-12T02:01:36.665Z,14.95
2022-09-12T02:02:35.867Z,15.07
2022-09-12T02:03:17.443Z,14.81
2022-09-12T02:03:54.626Z,14.83
2022-09-12T02:04:44.953Z,14.87
2022-09-12T02:05:40.072Z,14.89
2022-09-12T02:06:22.167Z,14.86
2022-09-12T02:07:07.214Z,14.78
2022-09-12T02:07:43.595Z,14.69
2022-09-12T02:08:29.988Z,14.81
2022-09-12T02:09:29.483Z,14.94
2022-09-12T02:10:16.194Z,14.88
2022-09-12T02:10:59.496Z,14.96
2022-09-12T02:11:35.793Z,14.95
2022-09-12T02:12:12.132Z,14.88
2022-09-12T02:12:56.735Z,14.98
2022-09-12T02:13:31.745Z,14.88
2022-09-12T02:14:09.322Z,14.89
2022-09-12T02:14:54.210Z,14.81
2022-09-12T02:15:38.257Z,14.85
2022-09-12T02:16:17.896Z,14.89
2022-09-12T02:16:58.142Z,14.88
2022-09-12T02:17:35.932Z,14.86
2022-09-12T02:18:12.338Z,14.82
2022-09-12T02:18:50.858Z,14.86
2022-09-12T02:19:27.992Z,14.77
2022-09-12T02:20:26.023Z,14.88
2022-09-12T02:21:09.634Z,14.76
2022-09-12T02:21:50.518Z,14.85
2022-09-12T02:22:26.692Z,14.83
2022-09-12T02:23:00.990Z,14.77
2022-09-12T02:23:38.074Z,14.75
2022-09-12T02:24:12.871Z,14.78
2022-09-12T02:24:50.906Z,14.72
2022-09-12T02:25:26.093Z,14.68
2022-09-12T02:26:08.291Z,14.72
2022-09-12T02:27:12.437Z,14.74
2022-09-12T02:28:09.086Z,14.73
2022-09-12T02:28:43.300Z,14.71
2022-09-12T02:29:15.993Z,14.66
2022-09-12T02:29:48.945Z,14.67
2022-09-12T02:30:22.506Z,14.59
2022-09-12T02:31:15.242Z,14.60
2022-09-12T02:31:52.320Z,14.54
2022-09-12T02:32:32.919Z,14.57
2022-09-12T02:33:22.028Z,14.58
2022-09-12T02:34:21.611Z,14.47
2022-09-12T02:35:08.236Z,14.32
2022-09-12T02:35:48.678Z,14.22
2022-09-12T02:36:35.363Z,14.25
2022-09-12T02:37:34.052Z,14.22
2022-09-12T02:38:11.557Z,14.17
2022-09-12T02:38:46.505Z,14.16
2022-09-12T02:39:21.012Z,14.13
2022-09-12T02:39:55.974Z,14.17
2022-09-12T02:40:30.260Z,14.21
2022-09-12T02:41:02.749Z,14.21
2022-09-12T02:41:35.746Z,14.22
2022-09-12T02:42:08.010Z,14.22
2022-09-12T02:42:40.721Z,14.28
2022-09-12T02:43:12.973Z,14.35
2022-09-12T02:43:45.950Z,14.38
2022-09-12T02:44:18.588Z,14.35
2022-09-12T02:44:53.008Z,14.30
2022-09-12T02:45:25.323Z,14.32
2022-09-12T02:45:57.789Z,14.38
2022-09-12T02:46:44.032Z,14.52
2022-09-12T02:47:28.536Z,14.52
2022-09-12T02:48:15.658Z,14.61
2022-09-12T02:48:47.883Z,14.54
2022-09-12T02:49:20.678Z,14.48
2022-09-12T02:49:54.051Z,14.51
2022-09-12T02:50:27.344Z,14.48
2022-09-12T02:51:02.198Z,14.48
2022-09-12T02:51:34.790Z,14.44
2022-09-12T02:52:07.487Z,14.46
2022-09-12T02:52:42.876Z,14.48
2022-09-12T02:53:15.831Z,14.46
2022-09-12T02:53:48.188Z,14.49
2022-09-12T02:54:21.570Z,14.49
2022-09-12T02:54:57.194Z,14.34
2022-09-12T02:55:33.204Z,14.37
2022-09-12T02:56:14.566Z,14.24
2022-09-12T02:56:46.966Z,14.22
2022-09-12T02:57:23.104Z,14.15
2022-09-12T02:57:55.687Z,14.08
2022-09-12T02:58:31.585Z,14.02
2022-09-12T02:59:10.826Z,14.02
2022-09-12T02:59:43.211Z,14.05
2022-09-12T03:00:15.852Z,14.16
2022-09-12T03:00:57.606Z,14.29
2022-09-12T03:01:56.881Z,14.37
2022-09-12T03:02:47.837Z,14.30
2022-09-12T03:03:42.687Z,14.35
2022-09-12T03:04:26.950Z,14.31
2022-09-12T03:05:50.096Z,14.36
2022-09-12T03:06:37.799Z,14.21
2022-09-12T03:07:13.236Z,14.16
2022-09-12T03:08:13.095Z,14.12
2022-09-12T03:09:00.547Z,14.08
2022-09-12T03:09:44.784Z,14.03
2022-09-12T03:10:33.194Z,13.96
2022-09-12T03:11:39.269Z,14.24
2022-09-12T03:12:31.935Z,14.21
2022-09-12T03:13:50.465Z,14.46
2022-09-12T03:14:47.167Z,14.36
2022-09-12T03:15:42.570Z,14.21
2022-09-12T03:16:27.938Z,14.19
2022-09-12T03:17:44.542Z,14.25
2022-09-12T03:19:02.109Z,14.33
2022-09-12T03:19:40.949Z,14.26
2022-09-12T03:20:22.055Z,14.28
2022-09-12T03:21:04.423Z,14.22
2022-09-12T03:22:11.187Z,14.24
2022-09-12T03:23:01.194Z,14.22
2022-09-12T03:23:54.288Z,14.20
2022-09-12T03:24:33.083Z,14.13
2022-09-12T03:25:32.951Z,14.07
2022-09-12T03:26:20.973Z,14.12
2022-09-12T03:27:03.959Z,14.15
2022-09-12T03:27:52.697Z,14.17
2022-09-12T03:28:25.391Z,14.13
2022-09-12T03:28:59.386Z,14.09
2022-09-12T03:29:32.366Z,14.09
2022-09-12T03:30:06.408Z,14.15
2022-09-12T03:30:56.853Z,14.10
2022-09-12T03:31:29.514Z,14.06
2022-09-12T03:32:02.055Z,14.02
2022-09-12T03:33:03.859Z,14.18
2022-09-12T03:33:36.312Z,14.11
2022-09-12T03:34:13.227Z,14.16
2022-09-12T03:34:45.607Z,14.18
2022-09-12T03:35:22.963Z,14.22
2022-09-12T03:36:01.980Z,14.23
2022-09-12T03:36:34.162Z,14.23
2022-09-12T03:37:06.827Z,14.13
2022-09-12T03:37:39.480Z,14.17
2022-09-12T03:38:11.854Z,14.18
2022-09-12T03:38:44.168Z,14.15
2022-09-12T03:39:16.577Z,14.11
2022-09-12T03:39:48.900Z,14.15
2022-09-12T03:40:21.524Z,14.14
2022-09-12T03:40:55.038Z,14.15
2022-09-12T03:41:27.626Z,14.17
2022-09-12T03:42:00.086Z,14.12
2022-09-12T03:42:34.600Z,14.12
2022-09-12T03:43:08.350Z,14.12
2022-09-12T03:43:40.803Z,14.15
2022-09-12T03:44:12.956Z,14.10
2022-09-12T03:44:45.448Z,14.08
2022-09-12T03:45:17.856Z,14.07
2022-09-12T03:45:53.537Z,14.09
2022-09-12T03:46:25.910Z,13.97
2022-09-12T03:46:58.058Z,14.02
2022-09-12T03:47:30.577Z,13.97
2022-09-12T03:48:04.538Z,13.96
2022-09-12T03:48:37.083Z,13.97
2022-09-12T03:49:09.897Z,14.01
2022-09-12T03:49:42.235Z,14.09
2022-09-12T03:50:14.486Z,14.05
2022-09-12T03:50:46.875Z,13.93
2022-09-12T03:51:19.136Z,13.92
2022-09-12T03:51:51.601Z,13.94
2022-09-12T03:52:29.754Z,14.01
2022-09-12T03:53:03.843Z,13.97
2022-09-12T03:53:36.423Z,14.01
2022-09-12T03:54:09.062Z,14.04
2022-09-12T03:54:41.802Z,14.01
2022-09-12T03:55:14.396Z,14.04
2022-09-12T03:55:48.747Z,14.05
2022-09-12T03:56:21.454Z,13.96
2022-09-12T03:56:53.969Z,14.01
2022-09-12T03:57:26.337Z,13.98
2022-09-12T03:57:58.744Z,13.96
2022-09-12T03:58:31.553Z,13.92
2022-09-12T03:59:07.556Z,14.00
2022-09-12T03:59:42.069Z,13.93
2022-09-12T04:00:19.095Z,13.88
2022-09-12T04:00:51.846Z,13.82
2022-09-12T04:01:24.531Z,13.78
2022-09-12T04:01:58.137Z,13.83
2022-09-12T04:02:30.507Z,13.84
2022-09-12T04:03:03.367Z,13.86
2022-09-12T04:03:35.657Z,13.96
2022-09-12T04:04:11.199Z,13.98
2022-09-12T04:04:44.358Z,13.98
2022-09-12T04:05:16.768Z,13.86
2022-09-12T04:05:51.272Z,13.90
2022-09-12T04:06:24.020Z,13.90
2022-09-12T04:06:56.693Z,13.90
2022-09-12T04:07:29.641Z,13.93
2022-09-12T04:08:02.272Z,13.88
2022-09-12T04:08:36.703Z,13.86
2022-09-12T04:09:09.052Z,13.91
2022-09-12T04:09:41.606Z,13.91
2022-09-12T04:10:16.222Z,13.82
2022-09-12T04:10:48.880Z,13.81
2022-09-12T04:11:24.450Z,13.85
2022-09-12T04:11:56.849Z,13.93
2022-09-12T04:12:29.942Z,13.95
2022-09-12T04:13:02.408Z,13.98
2022-09-12T04:13:35.944Z,13.90
2022-09-12T04:14:08.239Z,13.89
2022-09-12T04:14:40.672Z,13.91
2022-09-12T04:15:13.300Z,13.95
2022-09-12T04:15:56.492Z,13.93
2022-09-12T04:16:28.855Z,13.84
2022-09-12T04:17:02.049Z,13.85
2022-09-12T04:17:34.979Z,13.88
2022-09-12T04:18:07.322Z,13.93
2022-09-12T04:18:40.505Z,13.89
2022-09-12T04:19:12.694Z,13.91
2022-09-12T04:19:45.180Z,13.94
2022-09-12T04:20:17.634Z,13.95
2022-09-12T04:20:50.091Z,13.99
2022-09-12T04:21:22.592Z,14.02
2022-09-12T04:21:55.088Z,14.01
2022-09-12T04:22:27.961Z,14.01
2022-09-12T04:23:02.277Z,14.02
2022-09-12T04:23:35.191Z,14.07
2022-09-12T04:24:07.651Z,14.03
2022-09-12T04:24:40.041Z,14.05
2022-09-12T04:25:13.391Z,14.01
2022-09-12T04:25:54.051Z,13.93
2022-09-12T04:26:26.406Z,13.99
2022-09-12T04:26:58.817Z,13.90
2022-09-12T04:27:31.473Z,13.94
2022-09-12T04:28:03.811Z,13.92
2022-09-12T04:28:38.291Z,13.95
2022-09-12T04:29:15.080Z,13.92
2022-09-12T04:29:47.379Z,13.81
2022-09-12T04:30:19.757Z,13.86
2022-09-12T04:30:52.255Z,13.80
2022-09-12T04:31:25.988Z,13.82
2022-09-12T04:31:58.352Z,13.83
2022-09-12T04:32:31.387Z,13.79
2022-09-12T04:33:07.898Z,13.85
2022-09-12T04:33:40.526Z,13.77
2022-09-12T04:34:12.937Z,13.78
2022-09-12T04:34:46.107Z,13.76
2022-09-12T04:35:18.209Z,13.71
2022-09-12T04:35:50.491Z,13.80
2022-09-12T04:36:23.196Z,13.81
2022-09-12T04:36:55.461Z,13.78
2022-09-12T04:37:27.701Z,13.71
2022-09-12T04:38:00.272Z,13.81
2022-09-12T04:38:33.248Z,13.84
2022-09-12T04:39:06.118Z,13.77
2022-09-12T04:39:40.721Z,13.73
2022-09-12T04:40:13.177Z,13.85
2022-09-12T04:40:45.412Z,13.75
2022-09-12T04:41:20.555Z,13.76
2022-09-12T04:41:52.780Z,13.73
2022-09-12T04:42:25.120Z,13.63
2022-09-12T04:42:57.495Z,13.63
2022-09-12T04:43:29.687Z,13.71
2022-09-12T04:44:11.988Z,13.78
2022-09-12T04:44:44.311Z,13.85
2022-09-12T04:45:16.853Z,13.88
2022-09-12T04:45:49.209Z,13.86
2022-09-12T04:46:21.754Z,13.84
2022-09-12T04:46:54.148Z,13.86
2022-09-12T04:47:28.445Z,13.84
2022-09-12T04:48:00.779Z,13.84
2022-09-12T04:48:33.340Z,13.89
2022-09-12T04:49:06.235Z,13.76
2022-09-12T04:49:38.594Z,13.68
2022-09-12T04:50:10.836Z,13.75
2022-09-12T04:50:43.160Z,13.78
2022-09-12T04:51:21.313Z,13.80
2022-09-12T04:51:55.266Z,13.74
2022-09-12T04:52:29.655Z,13.72
2022-09-12T04:53:02.095Z,13.65
2022-09-12T04:53:34.593Z,13.68
2022-09-12T04:54:11.105Z,13.71
2022-09-12T04:54:43.412Z,13.55
2022-09-12T04:55:16.065Z,13.54
2022-09-12T04:55:48.277Z,13.58
2022-09-12T04:56:21.255Z,13.60
2022-09-12T04:56:54.954Z,13.60
2022-09-12T04:57:27.322Z,13.62
2022-09-12T04:57:59.527Z,13.68
2022-09-12T04:58:33.395Z,13.80
2022-09-12T04:59:06.978Z,13.73
2022-09-12T04:59:39.425Z,13.76
2022-09-12T05:00:15.240Z,13.80
2022-09-12T05:00:47.463Z,13.72
2022-09-12T05:01:21.994Z,13.84
2022-09-12T05:01:54.486Z,13.83
2022-09-12T05:02:27.151Z,13.89
2022-09-12T05:02:59.458Z,13.93
2022-09-12T05:03:32.475Z,13.90
2022-09-12T05:04:05.097Z,13.90
2022-09-12T05:04:37.508Z,13.90
2022-09-12T05:05:11.573Z,13.93
2022-09-12T05:05:43.855Z,13.94
2022-09-12T05:06:24.666Z,13.85
2022-09-12T05:06:56.850Z,13.81
2022-09-12T05:07:29.936Z,13.90
2022-09-12T05:08:02.597Z,13.97
2022-09-12T05:08:35.960Z,13.95
2022-09-12T05:09:11.741Z,14.04
2022-09-12T05:09:43.974Z,14.03
2022-09-12T05:10:16.611Z,13.99
2022-09-12T05:10:48.673Z,14.01
2022-09-12T05:11:28.194Z,14.03
2022-09-12T05:12:06.157Z,14.00
2022-09-12T05:12:38.655Z,13.91
2022-09-12T05:13:11.006Z,13.97
2022-09-12T05:13:43.660Z,14.01
2022-09-12T05:14:16.076Z,14.12
2022-09-12T05:14:48.392Z,14.12
2022-09-12T05:15:20.531Z,14.13
2022-09-12T05:16:00.195Z,14.13
2022-09-12T05:16:33.108Z,14.04
2022-09-12T05:17:06.179Z,14.12
2022-09-12T05:17:38.540Z,14.15
2022-09-12T05:18:11.179Z,14.06
2022-09-12T05:18:44.508Z,14.04
2022-09-12T05:19:17.321Z,14.06
2022-09-12T05:19:49.635Z,14.18
2022-09-12T05:20:22.071Z,14.15
2022-09-12T05:20:55.277Z,14.07
2022-09-12T05:21:28.116Z,14.12
2022-09-12T05:22:00.732Z,14.15
2022-09-12T05:22:33.057Z,13.98
2022-09-12T05:23:05.539Z,14.07
2022-09-12T05:23:38.011Z,14.03
2022-09-12T05:24:11.583Z,14.05
2022-09-12T05:24:49.871Z,14.04
2022-09-12T05:25:22.994Z,14.14
2022-09-12T05:25:57.926Z,14.18
2022-09-12T05:26:30.275Z,14.23
2022-09-12T05:27:06.803Z,14.22
2022-09-12T05:27:40.345Z,14.28
2022-09-12T05:28:12.642Z,14.23
2022-09-12T05:28:44.895Z,14.28
2022-09-12T05:29:17.144Z,14.24
2022-09-12T05:29:49.330Z,14.31
2022-09-12T05:30:21.489Z,14.34
2022-09-12T05:31:14.224Z,14.28
2022-09-12T05:31:50.163Z,14.25
2022-09-12T05:32:24.310Z,14.17
2022-09-12T05:32:56.754Z,14.21
2022-09-12T05:33:31.243Z,14.06
2022-09-12T05:34:10.085Z,13.98
2022-09-12T05:34:42.292Z,14.17
2022-09-12T05:35:14.762Z,14.19
2022-09-12T05:35:52.110Z,13.94
2022-09-12T05:36:33.654Z,14.13
2022-09-12T05:37:05.778Z,14.24
2022-09-12T05:37:38.096Z,14.01
2022-09-12T05:38:10.398Z,14.05
2022-09-12T05:38:42.382Z,14.25
2022-09-12T05:39:15.009Z,14.32
2022-09-12T05:39:47.293Z,14.42
2022-09-12T05:40:19.603Z,14.20
2022-09-12T05:40:52.554Z,14.36
2022-09-12T05:41:27.740Z,14.29
2022-09-12T05:41:59.983Z,14.12
2022-09-12T05:42:32.389Z,14.20
2022-09-12T05:43:04.954Z,14.12
2022-09-12T05:43:39.156Z,14.06
2022-09-12T05:44:14.296Z,14.11
2022-09-12T05:44:46.638Z,14.29
2022-09-12T05:45:18.858Z,14.37
2022-09-12T05:45:51.053Z,14.57
2022-09-12T05:46:28.634Z,14.65
2022-09-12T05:47:00.837Z,14.56
2022-09-12T05:47:33.112Z,14.57
2022-09-12T05:48:05.545Z,14.57
2022-09-12T05:48:38.886Z,14.56
2022-09-12T05:49:13.204Z,14.72
2022-09-12T05:49:48.149Z,14.82
2022-09-12T05:50:21.037Z,14.65
2022-09-12T05:50:53.301Z,14.61
2022-09-12T05:51:30.610Z,14.71
2022-09-12T05:52:03.476Z,14.84
2022-09-12T05:52:37.797Z,14.95
2022-09-12T05:53:11.913Z,14.83
2022-09-12T05:53:43.942Z,14.77
2022-09-12T05:54:18.845Z,14.94
2022-09-12T05:54:50.990Z,14.98
2022-09-12T05:55:23.522Z,14.97
2022-09-12T05:56:27.409Z,15.11
2022-09-12T05:57:00.157Z,15.18
2022-09-12T05:57:33.669Z,15.13
2022-09-12T05:58:06.065Z,15.13
2022-09-12T05:58:41.581Z,15.03
2022-09-12T05:59:24.057Z,15.05
2022-09-12T05:59:56.205Z,15.01
2022-09-12T06:00:32.852Z,15.10
2022-09-12T06:01:08.372Z,15.11
2022-09-12T06:01:41.738Z,15.27
2022-09-12T06:02:14.100Z,15.30
2022-09-12T06:02:53.087Z,15.39
2022-09-12T06:03:25.357Z,15.34
2022-09-12T06:04:00.979Z,15.28
2022-09-12T06:04:33.224Z,15.29
2022-09-12T06:05:05.744Z,15.42
2022-09-12T06:05:37.941Z,15.47
2022-09-12T06:06:13.742Z,15.33
2022-09-12T06:06:46.349Z,15.15
2022-09-12T06:07:18.701Z,15.14
2022-09-12T06:07:51.757Z,15.23
2022-09-12T06:08:24.098Z,15.40
2022-09-12T06:08:58.894Z,15.56
2022-09-12T06:09:31.730Z,15.52
2022-09-12T06:10:05.526Z,15.59
2022-09-12T06:10:37.714Z,15.77
2022-09-12T06:11:12.635Z,15.80
2022-09-12T06:11:46.547Z,15.87
2022-09-12T06:12:19.613Z,15.88
2022-09-12T06:12:51.766Z,15.84
2022-09-12T06:13:24.024Z,15.63
2022-09-12T06:13:58.739Z,15.62
2022-09-12T06:14:31.162Z,15.86
2022-09-12T06:15:04.084Z,16.00
2022-09-12T06:15:37.260Z,16.11
2022-09-12T06:16:18.077Z,16.21
2022-09-12T06:16:50.830Z,16.22
2022-09-12T06:17:23.167Z,16.19
2022-09-12T06:17:55.606Z,15.96
2022-09-12T06:18:27.945Z,15.99
2022-09-12T06:19:10.563Z,16.32
2022-09-12T06:19:42.725Z,16.52
2022-09-12T06:20:15.115Z,16.67
2022-09-12T06:20:49.295Z,16.84
2022-09-12T06:21:22.995Z,17.13
2022-09-12T06:21:55.493Z,16.98
2022-09-12T06:22:27.807Z,17.07
2022-09-12T06:23:00.063Z,17.21
2022-09-12T06:23:32.707Z,17.18
2022-09-12T06:24:05.209Z,17.15
2022-09-12T06:24:37.478Z,17.31
2022-09-12T06:25:09.984Z,17.51
2022-09-12T06:25:48.291Z,17.27
2022-09-12T06:26:25.767Z,17.31
2022-09-12T06:26:58.017Z,17.66
2022-09-12T06:27:30.524Z,17.64
2022-09-12T06:28:03.225Z,17.78
2022-09-12T06:28:38.062Z,17.80
2022-09-12T06:29:11.713Z,17.61
2022-09-12T06:29:44.011Z,17.75
2022-09-12T06:30:16.361Z,17.87
2022-09-12T06:30:49.114Z,17.59
2022-09-12T06:31:25.344Z,17.60
2022-09-12T06:31:57.886Z,17.83
2022-09-12T06:32:31.362Z,17.92
2022-09-12T06:33:03.787Z,17.88
2022-09-12T06:33:38.886Z,17.77
2022-09-12T06:34:14.325Z,18.05
2022-09-12T06:34:50.536Z,17.76
2022-09-12T06:35:23.938Z,17.80
2022-09-12T06:35:56.602Z,18.11
2022-09-12T06:36:36.915Z,18.20
2022-09-12T06:37:09.230Z,18.10
2022-09-12T06:37:44.724Z,18.40
2022-09-12T06:38:17.738Z,18.65
2022-09-12T06:38:54.828Z,19.15
2022-09-12T06:39:27.326Z,19.62
2022-09-12T06:40:02.058Z,19.85
2022-09-12T06:40:34.800Z,19.77
2022-09-12T06:41:09.685Z,20.28
2022-09-12T06:41:44.237Z,20.35
2022-09-12T06:42:16.948Z,20.45
2022-09-12T06:43:01.182Z,20.28
2022-09-12T06:43:40.597Z,20.03
2022-09-12T06:44:16.255Z,20.76
2022-09-12T06:44:48.767Z,21.07
2022-09-12T06:45:21.528Z,20.82
2022-09-12T06:45:56.232Z,21.14
2022-09-12T06:46:29.341Z,21.21
2022-09-12T06:47:01.639Z,20.57
2022-09-12T06:47:33.873Z,21.09
2022-09-12T06:48:06.493Z,21.51
2022-09-12T06:48:41.955Z,21.79
2022-09-12T06:49:15.161Z,21.24
2022-09-12T06:49:47.375Z,21.73
2022-09-12T06:50:19.685Z,21.60
2022-09-12T06:51:15.849Z,21.94
2022-09-12T06:51:48.458Z,22.48
2022-09-12T06:52:20.716Z,22.12
2022-09-12T06:52:52.887Z,22.18
2022-09-12T06:53:27.245Z,21.95
2022-09-12T06:53:59.663Z,23.02
2022-09-12T06:54:31.881Z,23.32
2022-09-12T06:55:04.497Z,22.17
2022-09-12T06:55:36.757Z,22.85
2022-09-12T06:56:15.272Z,23.15
2022-09-12T06:56:47.599Z,22.64
2022-09-12T06:57:19.870Z,23.01
2022-09-12T06:57:52.396Z,23.25
2022-09-12T06:58:26.084Z,22.90
2022-09-12T06:58:59.708Z,22.26
2022-09-12T06:59:32.159Z,22.53
2022-09-12T07:00:07.185Z,23.65
2022-09-12T07:00:39.802Z,23.42
2022-09-12T07:01:15.532Z,23.28
2022-09-12T07:01:48.358Z,22.50
2022-09-12T07:02:21.029Z,22.92
2022-09-12T07:02:58.752Z,23.14
2022-09-12T07:03:32.132Z,23.48
2022-09-12T07:04:05.016Z,22.50
2022-09-12T07:04:37.290Z,22.74
2022-09-12T07:05:09.739Z,23.34
2022-09-12T07:05:42.335Z,23.96
2022-09-12T07:06:16.944Z,24.71
2022-09-12T07:06:49.416Z,23.57
2022-09-12T07:07:21.648Z,23.65
2022-09-12T07:07:53.979Z,24.39
2022-09-12T07:08:26.987Z,25.02
2022-09-12T07:09:01.095Z,24.55
2022-09-12T07:09:33.524Z,24.59
2022-09-12T07:10:52.460Z,24.32
2022-09-12T07:11:26.804Z,25.41
2022-09-12T07:11:59.056Z,24.78
2022-09-12T07:12:31.429Z,25.04
2022-09-12T07:13:03.789Z,25.09
2022-09-12T07:13:36.243Z,25.02
2022-09-12T07:14:11.484Z,24.69
2022-09-12T07:14:44.038Z,24.22
2022-09-12T07:15:16.543Z,23.95
2022-09-12T07:15:49.246Z,23.26
2022-09-12T07:16:21.554Z,24.09
2022-09-12T07:16:54.015Z,24.02
2022-09-12T07:17:26.379Z,24.44
2022-09-12T07:17:58.697Z,25.12
2022-09-12T07:18:31.629Z,25.11
2022-09-12T07:19:05.982Z,24.85
2022-09-12T07:19:38.214Z,24.86
2022-09-12T07:20:10.597Z,25.43
2022-09-12T07:20:42.899Z,25.85
2022-09-12T07:21:15.403Z,26.15
2022-09-12T07:21:47.544Z,26.33
2022-09-12T07:22:19.893Z,26.21
2022-09-12T07:22:52.570Z,25.83
2022-09-12T07:23:24.851Z,26.54
2022-09-12T07:24:00.761Z,26.12
2022-09-12T07:24:33.187Z,25.25
2022-09-12T07:25:05.839Z,24.75
2022-09-12T07:25:38.211Z,24.73
2022-09-12T07:26:12.658Z,24.49
2022-09-12T07:26:44.954Z,25.18
2022-09-12T07:27:17.079Z,24.32
2022-09-12T07:27:51.296Z,24.77
2022-09-12T07:28:29.170Z,24.43
2022-09-12T07:29:19.112Z,24.95
2022-09-12T07:29:53.907Z,24.67
2022-09-12T07:30:26.735Z,24.79
2022-09-12T07:31:05.461Z,25.03
2022-09-12T07:31:37.953Z,25.76
2022-09-12T07:32:10.268Z,25.85
2022-09-12T07:32:42.593Z,25.26
2022-09-12T07:33:15.148Z,25.42
2022-09-12T07:33:52.382Z,25.28
2022-09-12T07:34:26.598Z,24.76
2022-09-12T07:34:58.990Z,25.54
2022-09-12T07:35:33.930Z,25.63
2022-09-12T07:36:09.108Z,25.28
2022-09-12T07:36:41.506Z,25.50
2022-09-12T07:37:13.850Z,24.62
2022-09-12T07:37:46.219Z,25.06
2022-09-12T07:38:18.438Z,24.84
2022-09-12T07:38:57.384Z,23.98
2022-09-12T07:39:29.950Z,23.87
2022-09-12T07:40:03.266Z,24.79
2022-09-12T07:40:35.694Z,25.13
2022-09-12T07:41:16.067Z,24.63
2022-09-12T07:41:48.336Z,25.38
2022-09-12T07:42:20.726Z,25.67
2022-09-12T07:42:53.005Z,25.30
2022-09-12T07:43:25.566Z,24.60
2022-09-12T07:44:01.143Z,25.73
2022-09-12T07:44:33.547Z,26.04
2022-09-12T07:45:06.059Z,26.20
2022-09-12T07:45:41.482Z,26.01
2022-09-12T07:46:14.741Z,26.09
2022-09-12T07:46:47.156Z,25.73
2022-09-12T07:47:19.471Z,25.05
2022-09-12T07:47:54.347Z,24.52
2022-09-12T07:48:28.425Z,25.63
2022-09-12T07:49:01.952Z,25.81
2022-09-12T07:49:34.232Z,25.67
2022-09-12T07:50:07.013Z,25.92
2022-09-12T07:50:44.527Z,25.44
2022-09-12T07:51:18.597Z,24.69
2022-09-12T07:51:50.830Z,24.70
2022-09-12T07:52:23.456Z,25.40